sensor_id;sensor_type;location;lat;lon;timestamp;P1;durP1;ratioP1;P2;durP2;ratioP2
46723;SDS011;32463;48.298;11.620;2023-02-10T00:01:23;80.65;;;33.30;;
46723;SDS011;32463;48.298;11.620;2023-02-10T00:03:51;84.07;;;32.50;;
46723;SDS011;32463;48.298;11.620;2023-02-10T00:06:18;96.95;;;34.88;;
46723;SDS011;32463;48.298;11.620;2023-02-10T00:08:46;77.38;;;33.38;;
46723;SDS011;32463;48.298;11.620;2023-02-10T00:11:17;83.25;;;33.63;;
46723;SDS011;32463;48.298;11.620;2023-02-10T00:13:45;75.22;;;31.67;;
46723;SDS011;32463;48.298;11.620;2023-02-10T00:16:12;78.32;;;33.67;;
46723;SDS011;32463;48.298;11.620;2023-02-10T00:18:40;79.25;;;33.38;;
46723;SDS011;32463;48.298;11.620;2023-02-10T00:21:10;83.50;;;31.63;;
46723;SDS011;32463;48.298;11.620;2023-02-10T00:23:41;85.22;;;33.00;;
46723;SDS011;32463;48.298;11.620;2023-02-10T00:26:09;75.75;;;31.83;;
46723;SDS011;32463;48.298;11.620;2023-02-10T00:28:37;86.60;;;34.58;;
46723;SDS011;32463;48.298;11.620;2023-02-10T00:31:08;82.10;;;33.60;;
46723;SDS011;32463;48.298;11.620;2023-02-10T00:33:37;79.45;;;32.67;;
46723;SDS011;32463;48.298;11.620;2023-02-10T00:36:07;85.70;;;35.05;;
46723;SDS011;32463;48.298;11.620;2023-02-10T00:38:35;88.88;;;34.60;;
46723;SDS011;32463;48.298;11.620;2023-02-10T00:41:03;91.80;;;36.03;;
46723;SDS011;32463;48.298;11.620;2023-02-10T00:43:31;84.35;;;34.53;;
46723;SDS011;32463;48.298;11.620;2023-02-10T00:45:58;88.10;;;35.33;;
46723;SDS011;32463;48.298;11.620;2023-02-10T00:48:25;87.80;;;33.97;;
46723;SDS011;32463;48.298;11.620;2023-02-10T00:50:52;82.00;;;33.45;;
46723;SDS011;32463;48.298;11.620;2023-02-10T00:53:18;84.85;;;33.60;;
46723;SDS011;32463;48.298;11.620;2023-02-10T00:55:45;83.40;;;34.22;;
46723;SDS011;32463;48.298;11.620;2023-02-10T00:58:11;80.47;;;32.10;;
46723;SDS011;32463;48.298;11.620;2023-02-10T01:00:38;73.57;;;32.00;;
46723;SDS011;32463;48.298;11.620;2023-02-10T01:03:05;87.00;;;33.50;;
46723;SDS011;32463;48.298;11.620;2023-02-10T01:05:31;92.13;;;34.33;;
46723;SDS011;32463;48.298;11.620;2023-02-10T01:07:58;85.65;;;35.03;;
46723;SDS011;32463;48.298;11.620;2023-02-10T01:10:24;81.18;;;35.30;;
46723;SDS011;32463;48.298;11.620;2023-02-10T01:12:51;78.03;;;33.40;;
46723;SDS011;32463;48.298;11.620;2023-02-10T01:15:17;86.35;;;34.55;;
46723;SDS011;32463;48.298;11.620;2023-02-10T01:17:44;78.53;;;33.22;;
46723;SDS011;32463;48.298;11.620;2023-02-10T01:20:10;81.80;;;33.60;;
46723;SDS011;32463;48.298;11.620;2023-02-10T01:22:37;85.20;;;34.80;;
46723;SDS011;32463;48.298;11.620;2023-02-10T01:25:03;87.38;;;34.65;;
46723;SDS011;32463;48.298;11.620;2023-02-10T01:27:30;78.40;;;33.50;;
46723;SDS011;32463;48.298;11.620;2023-02-10T01:29:58;88.60;;;35.50;;
46723;SDS011;32463;48.298;11.620;2023-02-10T01:32:24;82.75;;;34.42;;
46723;SDS011;32463;48.298;11.620;2023-02-10T01:34:50;73.50;;;32.42;;
46723;SDS011;32463;48.298;11.620;2023-02-10T01:37:17;83.72;;;33.67;;
46723;SDS011;32463;48.298;11.620;2023-02-10T01:39:43;77.07;;;31.90;;
46723;SDS011;32463;48.298;11.620;2023-02-10T01:42:12;80.20;;;32.63;;
46723;SDS011;32463;48.298;11.620;2023-02-10T01:47:06;83.90;;;33.33;;
46723;SDS011;32463;48.298;11.620;2023-02-10T01:49:34;79.25;;;30.90;;
46723;SDS011;32463;48.298;11.620;2023-02-10T01:52:06;81.05;;;32.78;;
46723;SDS011;32463;48.298;11.620;2023-02-10T01:54:45;76.38;;;31.23;;
46723;SDS011;32463;48.298;11.620;2023-02-10T01:57:15;78.13;;;31.45;;
46723;SDS011;32463;48.298;11.620;2023-02-10T01:59:42;71.03;;;30.67;;
46723;SDS011;32463;48.298;11.620;2023-02-10T02:02:10;80.63;;;31.67;;
46723;SDS011;32463;48.298;11.620;2023-02-10T02:04:47;82.63;;;32.08;;
46723;SDS011;32463;48.298;11.620;2023-02-10T02:07:16;79.03;;;34.03;;
46723;SDS011;32463;48.298;11.620;2023-02-10T02:09:44;82.25;;;33.90;;
46723;SDS011;32463;48.298;11.620;2023-02-10T02:15:31;81.10;;;32.88;;
46723;SDS011;32463;48.298;11.620;2023-02-10T02:26:21;78.18;;;31.95;;
46723;SDS011;32463;48.298;11.620;2023-02-10T02:31:57;73.70;;;31.08;;
46723;SDS011;32463;48.298;11.620;2023-02-10T02:34:46;71.90;;;30.52;;
46723;SDS011;32463;48.298;11.620;2023-02-10T02:37:30;70.70;;;29.08;;
46723;SDS011;32463;48.298;11.620;2023-02-10T02:39:59;68.40;;;30.10;;
46723;SDS011;32463;48.298;11.620;2023-02-10T02:42:31;61.97;;;27.92;;
46723;SDS011;32463;48.298;11.620;2023-02-10T02:55:55;65.82;;;28.25;;
46723;SDS011;32463;48.298;11.620;2023-02-10T02:58:50;61.17;;;28.15;;
46723;SDS011;32463;48.298;11.620;2023-02-10T03:01:47;60.40;;;27.20;;
46723;SDS011;32463;48.298;11.620;2023-02-10T03:04:20;60.47;;;28.25;;
46723;SDS011;32463;48.298;11.620;2023-02-10T03:06:47;63.58;;;27.08;;
46723;SDS011;32463;48.298;11.620;2023-02-10T03:09:14;63.58;;;27.33;;
46723;SDS011;32463;48.298;11.620;2023-02-10T03:11:41;61.20;;;26.33;;
46723;SDS011;32463;48.298;11.620;2023-02-10T03:14:08;58.55;;;26.92;;
46723;SDS011;32463;48.298;11.620;2023-02-10T03:16:34;59.88;;;26.27;;
46723;SDS011;32463;48.298;11.620;2023-02-10T03:19:01;59.15;;;25.67;;
46723;SDS011;32463;48.298;11.620;2023-02-10T03:21:28;60.83;;;26.65;;
46723;SDS011;32463;48.298;11.620;2023-02-10T03:23:54;57.47;;;26.55;;
46723;SDS011;32463;48.298;11.620;2023-02-10T03:26:21;57.08;;;25.77;;
46723;SDS011;32463;48.298;11.620;2023-02-10T03:28:47;59.10;;;25.25;;
46723;SDS011;32463;48.298;11.620;2023-02-10T03:31:14;56.63;;;25.08;;
46723;SDS011;32463;48.298;11.620;2023-02-10T03:33:41;56.88;;;26.55;;
46723;SDS011;32463;48.298;11.620;2023-02-10T03:36:07;59.40;;;25.35;;
46723;SDS011;32463;48.298;11.620;2023-02-10T03:38:34;53.85;;;24.33;;
46723;SDS011;32463;48.298;11.620;2023-02-10T03:41:00;51.45;;;23.88;;
46723;SDS011;32463;48.298;11.620;2023-02-10T03:43:27;56.25;;;24.50;;
46723;SDS011;32463;48.298;11.620;2023-02-10T03:45:53;58.33;;;25.10;;
46723;SDS011;32463;48.298;11.620;2023-02-10T03:48:19;54.67;;;23.95;;
46723;SDS011;32463;48.298;11.620;2023-02-10T03:50:47;55.42;;;23.83;;
46723;SDS011;32463;48.298;11.620;2023-02-10T03:53:14;55.90;;;23.92;;
46723;SDS011;32463;48.298;11.620;2023-02-10T03:55:41;54.25;;;24.90;;
46723;SDS011;32463;48.298;11.620;2023-02-10T03:58:07;55.85;;;23.35;;
46723;SDS011;32463;48.298;11.620;2023-02-10T04:00:33;51.30;;;22.77;;
46723;SDS011;32463;48.298;11.620;2023-02-10T04:03:00;55.88;;;24.45;;
46723;SDS011;32463;48.298;11.620;2023-02-10T04:05:26;51.63;;;23.80;;
46723;SDS011;32463;48.298;11.620;2023-02-10T04:07:53;59.75;;;25.15;;
46723;SDS011;32463;48.298;11.620;2023-02-10T04:10:19;52.88;;;24.42;;
46723;SDS011;32463;48.298;11.620;2023-02-10T04:12:47;54.83;;;23.33;;
46723;SDS011;32463;48.298;11.620;2023-02-10T04:15:14;58.60;;;25.75;;
46723;SDS011;32463;48.298;11.620;2023-02-10T04:17:40;53.03;;;23.98;;
46723;SDS011;32463;48.298;11.620;2023-02-10T04:20:07;50.80;;;24.08;;
46723;SDS011;32463;48.298;11.620;2023-02-10T04:22:34;49.53;;;24.17;;
46723;SDS011;32463;48.298;11.620;2023-02-10T04:25:00;53.13;;;24.15;;
46723;SDS011;32463;48.298;11.620;2023-02-10T04:27:26;50.00;;;22.35;;
46723;SDS011;32463;48.298;11.620;2023-02-10T04:29:53;50.17;;;22.92;;
46723;SDS011;32463;48.298;11.620;2023-02-10T04:32:20;47.83;;;22.00;;
46723;SDS011;32463;48.298;11.620;2023-02-10T04:34:47;46.45;;;21.08;;
46723;SDS011;32463;48.298;11.620;2023-02-10T04:37:13;45.30;;;22.10;;
46723;SDS011;32463;48.298;11.620;2023-02-10T04:39:40;49.60;;;22.15;;
46723;SDS011;32463;48.298;11.620;2023-02-10T04:42:09;49.70;;;23.30;;
46723;SDS011;32463;48.298;11.620;2023-02-10T04:44:36;52.42;;;22.13;;
46723;SDS011;32463;48.298;11.620;2023-02-10T04:47:03;50.10;;;21.52;;
46723;SDS011;32463;48.298;11.620;2023-02-10T04:49:29;48.67;;;21.85;;
46723;SDS011;32463;48.298;11.620;2023-02-10T04:51:56;43.47;;;21.27;;
46723;SDS011;32463;48.298;11.620;2023-02-10T04:54:23;51.90;;;22.77;;
46723;SDS011;32463;48.298;11.620;2023-02-10T04:56:49;55.30;;;24.40;;
46723;SDS011;32463;48.298;11.620;2023-02-10T04:59:16;57.80;;;25.23;;
46723;SDS011;32463;48.298;11.620;2023-02-10T05:01:42;58.38;;;25.02;;
46723;SDS011;32463;48.298;11.620;2023-02-10T05:04:09;51.63;;;23.90;;
46723;SDS011;32463;48.298;11.620;2023-02-10T05:06:35;55.95;;;24.58;;
46723;SDS011;32463;48.298;11.620;2023-02-10T05:09:02;54.97;;;23.92;;
46723;SDS011;32463;48.298;11.620;2023-02-10T05:11:28;53.45;;;24.80;;
46723;SDS011;32463;48.298;11.620;2023-02-10T05:13:55;52.20;;;23.67;;
46723;SDS011;32463;48.298;11.620;2023-02-10T05:16:21;57.72;;;24.13;;
46723;SDS011;32463;48.298;11.620;2023-02-10T05:18:48;52.83;;;24.02;;
46723;SDS011;32463;48.298;11.620;2023-02-10T05:21:14;55.50;;;23.55;;
46723;SDS011;32463;48.298;11.620;2023-02-10T05:23:41;48.05;;;21.70;;
46723;SDS011;32463;48.298;11.620;2023-02-10T05:26:08;51.22;;;22.65;;
46723;SDS011;32463;48.298;11.620;2023-02-10T05:28:35;50.45;;;24.13;;
46723;SDS011;32463;48.298;11.620;2023-02-10T05:31:01;57.97;;;24.33;;
46723;SDS011;32463;48.298;11.620;2023-02-10T05:33:31;54.75;;;23.33;;
46723;SDS011;32463;48.298;11.620;2023-02-10T05:35:59;56.90;;;24.88;;
46723;SDS011;32463;48.298;11.620;2023-02-10T05:38:26;65.70;;;25.65;;
46723;SDS011;32463;48.298;11.620;2023-02-10T05:40:52;60.80;;;26.85;;
46723;SDS011;32463;48.298;11.620;2023-02-10T05:43:19;66.10;;;27.75;;
46723;SDS011;32463;48.298;11.620;2023-02-10T05:45:45;65.30;;;27.42;;
46723;SDS011;32463;48.298;11.620;2023-02-10T05:48:12;67.47;;;26.88;;
46723;SDS011;32463;48.298;11.620;2023-02-10T05:50:39;67.00;;;26.52;;
46723;SDS011;32463;48.298;11.620;2023-02-10T05:53:06;59.47;;;26.35;;
46723;SDS011;32463;48.298;11.620;2023-02-10T05:55:33;59.55;;;26.10;;
46723;SDS011;32463;48.298;11.620;2023-02-10T05:58:00;65.28;;;26.50;;
46723;SDS011;32463;48.298;11.620;2023-02-10T06:00:26;64.57;;;27.27;;
46723;SDS011;32463;48.298;11.620;2023-02-10T06:02:53;56.83;;;26.50;;
46723;SDS011;32463;48.298;11.620;2023-02-10T06:05:19;62.85;;;26.33;;
46723;SDS011;32463;48.298;11.620;2023-02-10T06:07:46;67.53;;;26.60;;
46723;SDS011;32463;48.298;11.620;2023-02-10T06:10:12;61.33;;;25.83;;
46723;SDS011;32463;48.298;11.620;2023-02-10T06:12:39;65.95;;;26.75;;
46723;SDS011;32463;48.298;11.620;2023-02-10T06:15:05;59.25;;;26.85;;
46723;SDS011;32463;48.298;11.620;2023-02-10T06:17:32;58.80;;;25.52;;
46723;SDS011;32463;48.298;11.620;2023-02-10T06:19:58;58.38;;;26.48;;
46723;SDS011;32463;48.298;11.620;2023-02-10T06:22:25;57.72;;;25.52;;
46723;SDS011;32463;48.298;11.620;2023-02-10T06:24:51;56.95;;;26.00;;
46723;SDS011;32463;48.298;11.620;2023-02-10T06:27:18;58.40;;;25.67;;
46723;SDS011;32463;48.298;11.620;2023-02-10T06:29:45;53.03;;;23.83;;
46723;SDS011;32463;48.298;11.620;2023-02-10T06:32:13;51.95;;;23.10;;
46723;SDS011;32463;48.298;11.620;2023-02-10T06:34:39;46.60;;;22.73;;
46723;SDS011;32463;48.298;11.620;2023-02-10T06:37:06;47.72;;;21.98;;
46723;SDS011;32463;48.298;11.620;2023-02-10T06:39:33;49.65;;;22.08;;
46723;SDS011;32463;48.298;11.620;2023-02-10T06:41:59;49.85;;;23.50;;
46723;SDS011;32463;48.298;11.620;2023-02-10T06:44:26;55.40;;;24.55;;
46723;SDS011;32463;48.298;11.620;2023-02-10T06:46:52;52.80;;;23.73;;
46723;SDS011;32463;48.298;11.620;2023-02-10T06:49:19;46.80;;;21.83;;
46723;SDS011;32463;48.298;11.620;2023-02-10T06:51:45;48.70;;;22.30;;
46723;SDS011;32463;48.298;11.620;2023-02-10T06:54:12;48.25;;;23.08;;
46723;SDS011;32463;48.298;11.620;2023-02-10T06:56:38;52.95;;;22.08;;
46723;SDS011;32463;48.298;11.620;2023-02-10T06:59:06;51.78;;;21.80;;
46723;SDS011;32463;48.298;11.620;2023-02-10T07:01:33;46.35;;;21.88;;
46723;SDS011;32463;48.298;11.620;2023-02-10T07:03:59;47.47;;;21.98;;
46723;SDS011;32463;48.298;11.620;2023-02-10T07:06:25;49.95;;;22.38;;
46723;SDS011;32463;48.298;11.620;2023-02-10T07:08:52;50.15;;;22.20;;
46723;SDS011;32463;48.298;11.620;2023-02-10T07:11:18;48.05;;;22.73;;
46723;SDS011;32463;48.298;11.620;2023-02-10T07:13:46;48.40;;;21.88;;
46723;SDS011;32463;48.298;11.620;2023-02-10T07:16:12;48.08;;;21.60;;
46723;SDS011;32463;48.298;11.620;2023-02-10T07:18:41;45.90;;;20.98;;
46723;SDS011;32463;48.298;11.620;2023-02-10T07:21:08;49.67;;;21.38;;
46723;SDS011;32463;48.298;11.620;2023-02-10T07:23:35;50.78;;;20.83;;
46723;SDS011;32463;48.298;11.620;2023-02-10T07:26:02;42.85;;;20.83;;
46723;SDS011;32463;48.298;11.620;2023-02-10T07:28:29;42.53;;;21.23;;
46723;SDS011;32463;48.298;11.620;2023-02-10T07:30:56;44.30;;;20.58;;
46723;SDS011;32463;48.298;11.620;2023-02-10T07:33:22;41.33;;;19.13;;
46723;SDS011;32463;48.298;11.620;2023-02-10T07:35:48;43.35;;;18.85;;
46723;SDS011;32463;48.298;11.620;2023-02-10T07:38:15;35.60;;;18.92;;
46723;SDS011;32463;48.298;11.620;2023-02-10T07:40:41;33.00;;;16.38;;
46723;SDS011;32463;48.298;11.620;2023-02-10T07:43:08;31.02;;;15.60;;
46723;SDS011;32463;48.298;11.620;2023-02-10T07:45:34;39.13;;;17.30;;
46723;SDS011;32463;48.298;11.620;2023-02-10T07:48:01;33.58;;;17.30;;
46723;SDS011;32463;48.298;11.620;2023-02-10T07:50:27;36.97;;;17.83;;
46723;SDS011;32463;48.298;11.620;2023-02-10T07:52:54;39.63;;;18.55;;
46723;SDS011;32463;48.298;11.620;2023-02-10T07:55:20;39.25;;;17.38;;
46723;SDS011;32463;48.298;11.620;2023-02-10T07:57:46;39.53;;;18.65;;
46723;SDS011;32463;48.298;11.620;2023-02-10T08:00:13;36.40;;;18.27;;
46723;SDS011;32463;48.298;11.620;2023-02-10T08:02:40;38.60;;;18.80;;
46723;SDS011;32463;48.298;11.620;2023-02-10T08:05:07;46.88;;;19.88;;
46723;SDS011;32463;48.298;11.620;2023-02-10T08:07:35;42.97;;;18.38;;
46723;SDS011;32463;48.298;11.620;2023-02-10T08:10:02;41.05;;;19.13;;
46723;SDS011;32463;48.298;11.620;2023-02-10T08:12:29;39.75;;;19.20;;
46723;SDS011;32463;48.298;11.620;2023-02-10T08:14:57;37.25;;;18.75;;
46723;SDS011;32463;48.298;11.620;2023-02-10T08:17:24;40.60;;;18.00;;
46723;SDS011;32463;48.298;11.620;2023-02-10T08:19:50;39.05;;;17.30;;
46723;SDS011;32463;48.298;11.620;2023-02-10T08:22:17;34.55;;;17.58;;
46723;SDS011;32463;48.298;11.620;2023-02-10T08:24:43;34.88;;;17.25;;
46723;SDS011;32463;48.298;11.620;2023-02-10T08:27:10;36.95;;;16.70;;
46723;SDS011;32463;48.298;11.620;2023-02-10T08:29:36;34.03;;;16.38;;
46723;SDS011;32463;48.298;11.620;2023-02-10T08:32:03;28.42;;;15.90;;
46723;SDS011;32463;48.298;11.620;2023-02-10T08:34:29;35.42;;;14.95;;
46723;SDS011;32463;48.298;11.620;2023-02-10T08:36:56;28.83;;;14.77;;
46723;SDS011;32463;48.298;11.620;2023-02-10T08:39:22;27.02;;;13.15;;
46723;SDS011;32463;48.298;11.620;2023-02-10T08:41:49;28.13;;;13.50;;
46723;SDS011;32463;48.298;11.620;2023-02-10T08:44:25;47.80;;;19.95;;
46723;SDS011;32463;48.298;11.620;2023-02-10T08:46:52;33.08;;;14.27;;
46723;SDS011;32463;48.298;11.620;2023-02-10T08:49:19;26.13;;;14.57;;
46723;SDS011;32463;48.298;11.620;2023-02-10T08:51:47;26.05;;;15.10;;
46723;SDS011;32463;48.298;11.620;2023-02-10T08:54:14;25.95;;;13.90;;
46723;SDS011;32463;48.298;11.620;2023-02-10T08:56:42;31.35;;;16.13;;
46723;SDS011;32463;48.298;11.620;2023-02-10T08:59:08;28.10;;;15.77;;
46723;SDS011;32463;48.298;11.620;2023-02-10T09:01:35;27.00;;;13.50;;
46723;SDS011;32463;48.298;11.620;2023-02-10T09:04:02;23.48;;;12.85;;
46723;SDS011;32463;48.298;11.620;2023-02-10T09:06:30;36.72;;;12.88;;
46723;SDS011;32463;48.298;11.620;2023-02-10T09:09:04;25.88;;;14.07;;
46723;SDS011;32463;48.298;11.620;2023-02-10T09:11:32;28.85;;;14.50;;
46723;SDS011;32463;48.298;11.620;2023-02-10T09:13:58;20.67;;;11.43;;
46723;SDS011;32463;48.298;11.620;2023-02-10T09:16:25;23.45;;;12.52;;
46723;SDS011;32463;48.298;11.620;2023-02-10T09:18:52;24.75;;;12.13;;
46723;SDS011;32463;48.298;11.620;2023-02-10T09:21:19;22.98;;;13.15;;
46723;SDS011;32463;48.298;11.620;2023-02-10T09:23:46;29.05;;;14.00;;
46723;SDS011;32463;48.298;11.620;2023-02-10T09:26:12;21.08;;;11.82;;
46723;SDS011;32463;48.298;11.620;2023-02-10T09:28:39;27.17;;;13.02;;
46723;SDS011;32463;48.298;11.620;2023-02-10T09:31:06;22.50;;;12.25;;
46723;SDS011;32463;48.298;11.620;2023-02-10T09:33:34;27.88;;;15.00;;
46723;SDS011;32463;48.298;11.620;2023-02-10T09:36:05;26.35;;;13.57;;
46723;SDS011;32463;48.298;11.620;2023-02-10T09:38:33;25.38;;;13.60;;
46723;SDS011;32463;48.298;11.620;2023-02-10T09:46:16;26.08;;;13.15;;
46723;SDS011;32463;48.298;11.620;2023-02-10T09:49:14;28.23;;;13.35;;
46723;SDS011;32463;48.298;11.620;2023-02-10T09:54:40;25.80;;;13.70;;
46723;SDS011;32463;48.298;11.620;2023-02-10T09:57:08;26.25;;;13.05;;
46723;SDS011;32463;48.298;11.620;2023-02-10T09:59:39;27.13;;;13.60;;
46723;SDS011;32463;48.298;11.620;2023-02-10T10:02:11;25.17;;;13.20;;
46723;SDS011;32463;48.298;11.620;2023-02-10T10:04:43;24.23;;;14.45;;
46723;SDS011;32463;48.298;11.620;2023-02-10T10:09:46;27.23;;;14.68;;
46723;SDS011;32463;48.298;11.620;2023-02-10T10:12:20;27.27;;;15.32;;
46723;SDS011;32463;48.298;11.620;2023-02-10T10:14:47;32.42;;;17.17;;
46723;SDS011;32463;48.298;11.620;2023-02-10T10:23:01;27.83;;;15.65;;
46723;SDS011;32463;48.298;11.620;2023-02-10T10:28:29;25.52;;;14.20;;
46723;SDS011;32463;48.298;11.620;2023-02-10T10:33:53;27.33;;;16.40;;
46723;SDS011;32463;48.298;11.620;2023-02-10T10:36:27;28.02;;;16.45;;
46723;SDS011;32463;48.298;11.620;2023-02-10T10:39:16;28.55;;;17.88;;
46723;SDS011;32463;48.298;11.620;2023-02-10T10:41:47;30.63;;;18.73;;
46723;SDS011;32463;48.298;11.620;2023-02-10T10:44:17;28.88;;;17.25;;
46723;SDS011;32463;48.298;11.620;2023-02-10T10:49:40;31.42;;;17.10;;
46723;SDS011;32463;48.298;11.620;2023-02-10T10:52:19;30.85;;;16.67;;
46723;SDS011;32463;48.298;11.620;2023-02-10T10:54:57;32.53;;;16.48;;
46723;SDS011;32463;48.298;11.620;2023-02-10T10:57:25;29.58;;;18.00;;
46723;SDS011;32463;48.298;11.620;2023-02-10T10:59:54;26.98;;;17.08;;
46723;SDS011;32463;48.298;11.620;2023-02-10T11:02:28;27.17;;;16.65;;
46723;SDS011;32463;48.298;11.620;2023-02-10T11:07:30;26.40;;;17.27;;
46723;SDS011;32463;48.298;11.620;2023-02-10T11:09:58;27.65;;;17.75;;
46723;SDS011;32463;48.298;11.620;2023-02-10T11:14:58;29.92;;;19.30;;
46723;SDS011;32463;48.298;11.620;2023-02-10T11:17:29;30.50;;;19.25;;
46723;SDS011;32463;48.298;11.620;2023-02-10T11:20:05;29.63;;;19.77;;
46723;SDS011;32463;48.298;11.620;2023-02-10T11:22:42;28.60;;;18.85;;
46723;SDS011;32463;48.298;11.620;2023-02-10T11:25:45;32.88;;;19.45;;
46723;SDS011;32463;48.298;11.620;2023-02-10T11:28:03;28.27;;;18.30;;
46723;SDS011;32463;48.298;11.620;2023-02-10T11:33:17;30.23;;;18.17;;
46723;SDS011;32463;48.298;11.620;2023-02-10T11:35:51;27.52;;;18.23;;
46723;SDS011;32463;48.298;11.620;2023-02-10T11:38:23;31.90;;;19.95;;
46723;SDS011;32463;48.298;11.620;2023-02-10T11:40:52;143.82;;;67.75;;
46723;SDS011;32463;48.298;11.620;2023-02-10T11:43:28;378.95;;;176.77;;
46723;SDS011;32463;48.298;11.620;2023-02-10T11:45:59;29.92;;;19.02;;
46723;SDS011;32463;48.298;11.620;2023-02-10T11:48:27;31.70;;;18.45;;
46723;SDS011;32463;48.298;11.620;2023-02-10T11:51:02;29.80;;;17.70;;
46723;SDS011;32463;48.298;11.620;2023-02-10T11:53:33;27.67;;;17.60;;
46723;SDS011;32463;48.298;11.620;2023-02-10T11:56:22;29.55;;;19.33;;
46723;SDS011;32463;48.298;11.620;2023-02-10T12:02:16;23.65;;;16.70;;
46723;SDS011;32463;48.298;11.620;2023-02-10T12:04:59;28.10;;;18.02;;
46723;SDS011;32463;48.298;11.620;2023-02-10T12:10:13;27.63;;;18.08;;
46723;SDS011;32463;48.298;11.620;2023-02-10T12:15:37;27.90;;;17.48;;
46723;SDS011;32463;48.298;11.620;2023-02-10T12:21:05;27.42;;;17.05;;
46723;SDS011;32463;48.298;11.620;2023-02-10T12:24:06;27.67;;;18.45;;
46723;SDS011;32463;48.298;11.620;2023-02-10T12:26:51;29.85;;;19.50;;
46723;SDS011;32463;48.298;11.620;2023-02-10T12:32:02;25.17;;;18.02;;
46723;SDS011;32463;48.298;11.620;2023-02-10T12:37:16;25.42;;;17.67;;
46723;SDS011;32463;48.298;11.620;2023-02-10T12:53:28;24.75;;;17.45;;
46723;SDS011;32463;48.298;11.620;2023-02-10T12:56:08;25.88;;;17.42;;
46723;SDS011;32463;48.298;11.620;2023-02-10T12:58:53;29.38;;;17.58;;
46723;SDS011;32463;48.298;11.620;2023-02-10T13:01:30;32.42;;;17.73;;
46723;SDS011;32463;48.298;11.620;2023-02-10T13:04:06;26.70;;;18.27;;
46723;SDS011;32463;48.298;11.620;2023-02-10T13:06:42;28.67;;;20.33;;
46723;SDS011;32463;48.298;11.620;2023-02-10T13:09:36;31.27;;;19.48;;
46723;SDS011;32463;48.298;11.620;2023-02-10T13:14:45;23.58;;;16.73;;
46723;SDS011;32463;48.298;11.620;2023-02-10T13:17:14;26.08;;;17.90;;
46723;SDS011;32463;48.298;11.620;2023-02-10T13:19:54;22.98;;;17.10;;
46723;SDS011;32463;48.298;11.620;2023-02-10T13:22:31;28.98;;;18.35;;
46723;SDS011;32463;48.298;11.620;2023-02-10T13:25:19;25.60;;;17.05;;
46723;SDS011;32463;48.298;11.620;2023-02-10T13:28:14;23.52;;;17.27;;
46723;SDS011;32463;48.298;11.620;2023-02-10T13:33:52;24.88;;;16.52;;
46723;SDS011;32463;48.298;11.620;2023-02-10T13:36:40;30.63;;;19.55;;
46723;SDS011;32463;48.298;11.620;2023-02-10T13:42:56;24.35;;;16.90;;
46723;SDS011;32463;48.298;11.620;2023-02-10T13:47:31;26.55;;;18.17;;
46723;SDS011;32463;48.298;11.620;2023-02-10T13:52:51;25.42;;;17.65;;
46723;SDS011;32463;48.298;11.620;2023-02-10T14:00:30;27.35;;;18.02;;
46723;SDS011;32463;48.298;11.620;2023-02-10T14:05:50;26.85;;;18.00;;
46723;SDS011;32463;48.298;11.620;2023-02-10T14:13:43;28.25;;;18.90;;
46723;SDS011;32463;48.298;11.620;2023-02-10T14:16:27;22.42;;;16.00;;
46723;SDS011;32463;48.298;11.620;2023-02-10T14:18:57;24.85;;;17.73;;
46723;SDS011;32463;48.298;11.620;2023-02-10T14:21:26;23.52;;;17.08;;
46723;SDS011;32463;48.298;11.620;2023-02-10T14:24:03;26.77;;;18.88;;
46723;SDS011;32463;48.298;11.620;2023-02-10T14:26:39;28.60;;;18.17;;
46723;SDS011;32463;48.298;11.620;2023-02-10T14:29:15;30.98;;;19.33;;
46723;SDS011;32463;48.298;11.620;2023-02-10T14:31:45;22.88;;;17.42;;
46723;SDS011;32463;48.298;11.620;2023-02-10T14:34:20;25.15;;;17.38;;
46723;SDS011;32463;48.298;11.620;2023-02-10T14:36:53;26.02;;;18.08;;
46723;SDS011;32463;48.298;11.620;2023-02-10T14:39:21;25.83;;;17.67;;
46723;SDS011;32463;48.298;11.620;2023-02-10T14:41:49;25.40;;;17.38;;
46723;SDS011;32463;48.298;11.620;2023-02-10T14:44:28;28.08;;;19.10;;
46723;SDS011;32463;48.298;11.620;2023-02-10T14:47:00;28.38;;;18.58;;
46723;SDS011;32463;48.298;11.620;2023-02-10T14:49:27;29.10;;;18.95;;
46723;SDS011;32463;48.298;11.620;2023-02-10T14:51:58;26.75;;;17.48;;
46723;SDS011;32463;48.298;11.620;2023-02-10T14:54:25;27.88;;;19.30;;
46723;SDS011;32463;48.298;11.620;2023-02-10T14:56:53;28.50;;;18.15;;
46723;SDS011;32463;48.298;11.620;2023-02-10T14:59:26;27.17;;;17.67;;
46723;SDS011;32463;48.298;11.620;2023-02-10T15:01:54;30.92;;;18.67;;
46723;SDS011;32463;48.298;11.620;2023-02-10T15:04:23;29.50;;;17.92;;
46723;SDS011;32463;48.298;11.620;2023-02-10T15:06:54;31.15;;;19.10;;
46723;SDS011;32463;48.298;11.620;2023-02-10T15:11:59;32.53;;;18.30;;
46723;SDS011;32463;48.298;11.620;2023-02-10T15:14:49;38.00;;;18.50;;
46723;SDS011;32463;48.298;11.620;2023-02-10T15:17:23;32.33;;;18.42;;
46723;SDS011;32463;48.298;11.620;2023-02-10T15:20:00;31.27;;;18.40;;
46723;SDS011;32463;48.298;11.620;2023-02-10T15:22:42;36.15;;;18.58;;
46723;SDS011;32463;48.298;11.620;2023-02-10T15:28:00;32.50;;;18.50;;
46723;SDS011;32463;48.298;11.620;2023-02-10T15:33:24;34.33;;;17.67;;
46723;SDS011;32463;48.298;11.620;2023-02-10T15:38:53;39.45;;;23.02;;
46723;SDS011;32463;48.298;11.620;2023-02-10T15:46:49;34.40;;;19.27;;
46723;SDS011;32463;48.298;11.620;2023-02-10T15:49:18;34.20;;;19.83;;
46723;SDS011;32463;48.298;11.620;2023-02-10T15:51:52;40.28;;;19.65;;
46723;SDS011;32463;48.298;11.620;2023-02-10T15:54:21;35.92;;;19.30;;
46723;SDS011;32463;48.298;11.620;2023-02-10T15:56:55;38.65;;;20.08;;
46723;SDS011;32463;48.298;11.620;2023-02-10T15:59:27;37.00;;;20.05;;
46723;SDS011;32463;48.298;11.620;2023-02-10T16:01:55;37.35;;;19.65;;
46723;SDS011;32463;48.298;11.620;2023-02-10T16:04:22;36.00;;;18.70;;
46723;SDS011;32463;48.298;11.620;2023-02-10T16:06:49;33.47;;;18.52;;
46723;SDS011;32463;48.298;11.620;2023-02-10T16:09:17;33.97;;;19.15;;
46723;SDS011;32463;48.298;11.620;2023-02-10T16:11:43;38.20;;;19.45;;
46723;SDS011;32463;48.298;11.620;2023-02-10T16:14:10;31.88;;;18.45;;
46723;SDS011;32463;48.298;11.620;2023-02-10T16:16:47;40.78;;;19.95;;
46723;SDS011;32463;48.298;11.620;2023-02-10T16:19:17;36.22;;;19.33;;
46723;SDS011;32463;48.298;11.620;2023-02-10T16:21:46;33.72;;;17.92;;
46723;SDS011;32463;48.298;11.620;2023-02-10T16:24:19;32.47;;;17.77;;
46723;SDS011;32463;48.298;11.620;2023-02-10T16:26:47;37.83;;;19.30;;
46723;SDS011;32463;48.298;11.620;2023-02-10T16:29:18;33.25;;;18.67;;
46723;SDS011;32463;48.298;11.620;2023-02-10T16:31:46;35.45;;;18.48;;
46723;SDS011;32463;48.298;11.620;2023-02-10T16:34:13;35.33;;;18.73;;
46723;SDS011;32463;48.298;11.620;2023-02-10T16:36:40;47.80;;;23.00;;
46723;SDS011;32463;48.298;11.620;2023-02-10T16:39:12;59.28;;;29.45;;